createdAt,value
2022-10-02T00:02:23.390Z,7.30
2022-10-02T00:05:15.245Z,6.30
2022-10-02T00:07:52.187Z,7.03
2022-10-02T00:10:29.287Z,6.77
2022-10-02T00:13:04.338Z,6.88
2022-10-02T00:15:35.371Z,6.97
2022-10-02T00:18:09.954Z,7.10
2022-10-02T00:21:12.439Z,8.35
2022-10-02T00:23:49.564Z,6.60
2022-10-02T00:26:29.235Z,7.03
2022-10-02T00:29:20.626Z,7.13
2022-10-02T00:32:14.268Z,7.53
2022-10-02T00:35:28.820Z,7.13
2022-10-02T00:38:07.219Z,6.83
2022-10-02T00:40:56.142Z,7.70
2022-10-02T00:43:23.706Z,7.38
2022-10-02T00:46:18.341Z,6.78
2022-10-02T00:49:15.747Z,6.63
2022-10-02T00:52:10.958Z,6.60
2022-10-02T00:54:51.108Z,6.90
2022-10-02T00:57:18.320Z,7.05
2022-10-02T00:59:53.745Z,7.03
2022-10-02T01:02:26.928Z,6.65
2022-10-02T01:04:54.833Z,6.60
2022-10-02T01:07:22.474Z,6.85
2022-10-02T01:09:50.358Z,6.72
2022-10-02T01:12:17.962Z,6.38
2022-10-02T01:14:45.423Z,7.10
2022-10-02T01:17:31.332Z,6.93
2022-10-02T01:20:00.757Z,6.90
2022-10-02T01:22:34.672Z,7.53
2022-10-02T01:25:04.771Z,6.20
2022-10-02T01:27:36.637Z,7.20
2022-10-02T01:30:12.795Z,6.73
2022-10-02T01:33:13.128Z,7.07
2022-10-02T01:35:41.177Z,7.88
2022-10-02T01:38:12.689Z,7.50
2022-10-02T01:40:41.825Z,7.75
2022-10-02T01:43:15.092Z,7.77
2022-10-02T01:46:08.906Z,7.43
2022-10-02T01:48:42.951Z,7.90
2022-10-02T01:51:32.318Z,8.63
2022-10-02T01:54:11.651Z,8.02
2022-10-02T01:57:03.020Z,7.07
2022-10-02T01:59:45.346Z,7.40
2022-10-02T02:02:24.483Z,7.55
2022-10-02T02:05:28.640Z,7.57
2022-10-02T02:08:16.371Z,8.95
2022-10-02T02:10:50.340Z,7.33
2022-10-02T02:13:35.962Z,7.57
2022-10-02T02:16:32.798Z,7.75
2022-10-02T02:19:06.877Z,7.40
2022-10-02T02:21:41.857Z,8.13
2022-10-02T02:24:26.091Z,7.57
2022-10-02T02:26:58.641Z,8.38
2022-10-02T02:29:28.711Z,7.97
2022-10-02T02:31:59.484Z,8.02
2022-10-02T02:34:35.496Z,7.65
2022-10-02T02:37:12.048Z,8.20
2022-10-02T02:39:50.905Z,7.38
2022-10-02T02:42:25.814Z,8.13
2022-10-02T02:45:02.720Z,8.82
2022-10-02T02:47:40.562Z,8.10
2022-10-02T02:50:15.929Z,8.93
2022-10-02T02:52:48.679Z,7.72
2022-10-02T02:55:27.343Z,8.55
2022-10-02T02:58:08.581Z,6.97
2022-10-02T03:00:36.790Z,8.48
2022-10-02T03:03:04.750Z,8.00
2022-10-02T03:05:34.907Z,7.03
2022-10-02T03:08:05.819Z,7.28
2022-10-02T03:10:56.647Z,7.80
2022-10-02T03:13:41.906Z,7.80
2022-10-02T03:16:48.177Z,8.60
2022-10-02T03:19:41.591Z,8.48
2022-10-02T03:22:15.994Z,7.40
2022-10-02T03:25:12.009Z,8.00
2022-10-02T03:27:50.743Z,8.35
2022-10-02T03:30:22.294Z,8.23
2022-10-02T03:32:56.582Z,8.73
2022-10-02T03:35:25.584Z,7.55
2022-10-02T03:37:59.202Z,7.85
2022-10-02T03:40:27.617Z,7.95
2022-10-02T03:42:58.615Z,7.63
2022-10-02T03:45:49.462Z,7.28
2022-10-02T03:48:15.423Z,8.88
2022-10-02T03:50:43.065Z,8.00
2022-10-02T03:53:23.419Z,7.60
2022-10-02T03:55:54.523Z,7.33
2022-10-02T03:58:22.591Z,7.45
2022-10-02T04:01:08.376Z,8.57
2022-10-02T04:03:39.915Z,8.15
2022-10-02T04:06:13.897Z,8.55
2022-10-02T04:09:11.144Z,6.97
2022-10-02T04:11:47.007Z,6.72
2022-10-02T04:14:24.235Z,6.63
2022-10-02T04:17:05.831Z,6.50
2022-10-02T04:19:51.950Z,6.25
2022-10-02T04:22:37.581Z,6.50
2022-10-02T04:25:14.715Z,7.05
2022-10-02T04:27:53.596Z,7.20
2022-10-02T04:30:21.878Z,5.97
2022-10-02T04:32:49.686Z,6.40
2022-10-02T04:35:30.800Z,6.23
2022-10-02T04:38:26.562Z,7.15
2022-10-02T04:41:03.559Z,7.05
2022-10-02T04:43:59.088Z,6.60
2022-10-02T04:47:07.522Z,7.20
2022-10-02T04:49:53.243Z,6.80
2022-10-02T04:52:42.876Z,6.35
2022-10-02T04:55:31.677Z,6.72
2022-10-02T04:58:25.521Z,6.38
2022-10-02T05:01:06.773Z,6.45
2022-10-02T05:03:54.321Z,6.67
2022-10-02T05:06:40.371Z,7.72
2022-10-02T05:09:18.521Z,6.63
2022-10-02T05:11:57.901Z,6.88
2022-10-02T05:14:42.123Z,7.63
2022-10-02T05:17:45.521Z,6.60
2022-10-02T05:20:43.762Z,7.45
2022-10-02T05:23:48.201Z,8.80
2022-10-02T05:26:41.038Z,7.25
2022-10-02T05:29:29.401Z,7.80
2022-10-02T05:32:18.175Z,6.27
2022-10-02T05:35:03.535Z,7.13
2022-10-02T05:37:58.099Z,8.07
2022-10-02T05:40:51.735Z,7.57
2022-10-02T05:44:08.851Z,7.22
2022-10-02T05:47:01.643Z,6.33
2022-10-02T05:49:34.011Z,7.22
2022-10-02T05:52:26.279Z,7.15
2022-10-02T05:55:14.316Z,7.28
2022-10-02T05:58:06.440Z,7.28
2022-10-02T06:01:00.347Z,6.60
2022-10-02T06:03:50.961Z,6.50
2022-10-02T06:06:49.037Z,6.70
2022-10-02T06:09:24.557Z,6.32
2022-10-02T06:12:03.821Z,6.30
2022-10-02T06:14:45.265Z,6.60
2022-10-02T06:17:24.774Z,6.53
2022-10-02T06:20:11.315Z,5.10
2022-10-02T06:23:10.881Z,6.15
2022-10-02T06:25:45.341Z,6.78
2022-10-02T06:28:28.577Z,6.40
2022-10-02T06:31:26.785Z,6.20
2022-10-02T06:33:54.345Z,6.95
2022-10-02T06:36:40.582Z,7.22
2022-10-02T06:39:36.741Z,8.55
2022-10-02T06:42:04.157Z,7.30
2022-10-02T06:44:50.824Z,6.47
2022-10-02T06:47:45.623Z,7.00
2022-10-02T06:50:31.872Z,7.53
2022-10-02T06:53:07.436Z,7.65
2022-10-02T06:56:03.982Z,7.63
2022-10-02T06:58:53.421Z,7.50
2022-10-02T07:01:35.677Z,8.13
2022-10-02T07:04:19.638Z,8.70
2022-10-02T07:07:01.396Z,9.18
2022-10-02T07:09:50.025Z,8.00
2022-10-02T07:12:45.596Z,8.25
2022-10-02T07:15:21.865Z,7.65
2022-10-02T07:18:19.871Z,7.55
2022-10-02T07:21:01.383Z,7.60
2022-10-02T07:24:02.768Z,7.27
2022-10-02T07:26:47.277Z,8.25
2022-10-02T07:29:33.996Z,8.57
2022-10-02T07:32:19.782Z,8.15
2022-10-02T07:34:47.062Z,8.55
2022-10-02T07:37:35.746Z,7.27
2022-10-02T07:40:42.250Z,7.63
2022-10-02T07:43:26.822Z,8.30
2022-10-02T07:46:03.419Z,7.65
2022-10-02T07:48:47.521Z,8.25
2022-10-02T07:51:47.733Z,7.73
2022-10-02T07:54:35.621Z,8.82
2022-10-02T07:57:30.429Z,8.68
2022-10-02T08:00:15.422Z,8.07
2022-10-02T08:02:51.725Z,8.25
2022-10-02T08:05:31.621Z,6.87
2022-10-02T08:08:05.108Z,7.88
2022-10-02T08:10:41.988Z,8.75
2022-10-02T08:13:21.271Z,8.65
2022-10-02T08:15:55.764Z,8.57
2022-10-02T08:18:41.266Z,8.07
2022-10-02T08:21:19.792Z,8.45
2022-10-02T08:24:04.702Z,8.63
2022-10-02T08:26:40.317Z,8.10
2022-10-02T08:29:20.270Z,8.38
2022-10-02T08:31:48.823Z,8.00
2022-10-02T08:34:25.075Z,8.20
2022-10-02T08:37:15.830Z,8.18
2022-10-02T08:40:10.772Z,7.05
2022-10-02T08:43:10.802Z,7.95
2022-10-02T08:46:06.947Z,6.87
2022-10-02T08:48:55.344Z,7.45
2022-10-02T08:51:29.370Z,8.18
2022-10-02T08:54:21.220Z,9.15
2022-10-02T08:56:55.338Z,7.75
2022-10-02T08:59:35.057Z,6.77
2022-10-02T09:02:27.876Z,7.25
2022-10-02T09:05:14.472Z,8.30
2022-10-02T09:08:11.072Z,7.65
2022-10-02T09:10:46.548Z,8.60
2022-10-02T09:13:51.231Z,8.57
2022-10-02T09:17:08.022Z,8.10
2022-10-02T09:19:46.952Z,9.13
2022-10-02T09:22:17.139Z,8.70
2022-10-02T09:25:05.018Z,10.23
2022-10-02T09:28:01.014Z,8.53
2022-10-02T09:30:54.653Z,10.02
2022-10-02T09:33:55.778Z,9.90
2022-10-02T09:36:46.313Z,9.80
2022-10-02T09:40:09.919Z,9.30
2022-10-02T09:43:18.391Z,9.57
2022-10-02T09:46:13.911Z,9.82
2022-10-02T09:49:21.168Z,9.70
2022-10-02T09:52:06.490Z,10.13
2022-10-02T09:54:49.421Z,11.48
2022-10-02T09:57:32.437Z,9.40
2022-10-02T10:00:35.477Z,9.10
2022-10-02T10:03:44.500Z,9.75
2022-10-02T10:06:39.753Z,8.40
2022-10-02T10:09:30.257Z,9.75
2022-10-02T10:12:22.224Z,10.30
2022-10-02T10:15:09.212Z,9.52
2022-10-02T10:18:13.601Z,9.27
2022-10-02T10:21:10.858Z,9.50
2022-10-02T10:23:56.532Z,9.13
2022-10-02T10:26:37.032Z,9.30
2022-10-02T10:29:05.582Z,9.32
2022-10-02T10:32:08.456Z,8.95
2022-10-02T10:35:03.780Z,9.25
2022-10-02T10:37:49.497Z,9.27
2022-10-02T10:40:54.178Z,8.73
2022-10-02T10:43:47.979Z,9.13
2022-10-02T10:46:39.432Z,9.40
2022-10-02T10:49:45.233Z,9.45
2022-10-02T10:52:26.152Z,10.15
2022-10-02T10:55:18.138Z,8.97
2022-10-02T10:58:01.148Z,9.00
2022-10-02T11:01:13.627Z,9.38
2022-10-02T11:04:08.923Z,8.88
2022-10-02T11:06:37.160Z,9.48
2022-10-02T11:09:33.782Z,9.40
2022-10-02T11:12:26.257Z,9.48
2022-10-02T11:15:13.539Z,20.33
2022-10-02T11:17:48.501Z,9.43
2022-10-02T11:20:51.341Z,9.55
2022-10-02T11:23:37.059Z,9.03
2022-10-02T11:26:32.583Z,8.68
2022-10-02T11:29:21.471Z,9.13
2022-10-02T11:32:17.749Z,8.82
2022-10-02T11:35:09.522Z,7.93
2022-10-02T11:37:53.182Z,7.30
2022-10-02T11:41:11.268Z,7.90
2022-10-02T11:44:14.357Z,7.65
2022-10-02T11:47:01.408Z,7.53
2022-10-02T11:49:54.178Z,7.80
2022-10-02T11:53:12.462Z,7.67
2022-10-02T11:55:55.183Z,8.52
2022-10-02T11:59:03.386Z,8.45
2022-10-02T12:01:47.432Z,7.68
2022-10-02T12:04:27.698Z,7.93
2022-10-02T12:07:38.200Z,8.80
2022-10-02T12:10:33.440Z,9.60
2022-10-02T12:13:16.849Z,8.40
2022-10-02T12:16:11.061Z,7.97
2022-10-02T12:19:17.752Z,9.75
2022-10-02T12:22:33.417Z,8.90
2022-10-02T12:25:23.490Z,7.95
2022-10-02T12:28:12.934Z,8.50
2022-10-02T12:31:02.740Z,8.00
2022-10-02T12:33:45.050Z,8.40
2022-10-02T12:36:37.009Z,8.17
2022-10-02T12:39:22.036Z,8.35
2022-10-02T12:42:02.882Z,8.13
2022-10-02T12:45:01.452Z,8.30
2022-10-02T12:47:47.724Z,7.82
2022-10-02T12:50:40.362Z,8.07
2022-10-02T12:53:39.436Z,8.00
2022-10-02T12:56:36.018Z,8.35
2022-10-02T12:59:23.363Z,8.18
2022-10-02T13:02:05.886Z,8.82
2022-10-02T13:04:49.355Z,7.63
2022-10-02T13:07:56.474Z,8.05
2022-10-02T13:10:29.141Z,8.98
2022-10-02T13:13:09.231Z,7.70
2022-10-02T13:15:45.251Z,8.25
2022-10-02T13:18:34.124Z,8.20
2022-10-02T13:21:16.390Z,9.63
2022-10-02T13:24:38.080Z,8.55
2022-10-02T13:27:35.440Z,8.68
2022-10-02T13:30:07.688Z,9.15
2022-10-02T13:33:04.552Z,8.63
2022-10-02T13:36:00.138Z,9.13
2022-10-02T13:38:47.999Z,8.82
2022-10-02T13:41:57.405Z,9.52
2022-10-02T13:44:49.030Z,10.35
2022-10-02T13:47:35.187Z,11.10
2022-10-02T13:50:06.150Z,10.45
2022-10-02T13:52:45.545Z,10.55
2022-10-02T13:55:16.030Z,10.30
2022-10-02T13:58:00.750Z,10.18
2022-10-02T14:00:56.169Z,8.97
2022-10-02T14:03:43.272Z,8.45
2022-10-02T14:06:33.270Z,8.65
2022-10-02T14:09:18.621Z,7.75
2022-10-02T14:12:07.175Z,7.82
2022-10-02T14:15:11.756Z,7.67
2022-10-02T14:18:15.237Z,7.50
2022-10-02T14:21:32.496Z,7.47
2022-10-02T14:24:21.243Z,7.90
2022-10-02T14:27:14.030Z,8.30
2022-10-02T14:30:02.671Z,8.27
2022-10-02T14:32:44.750Z,9.15
2022-10-02T14:35:33.824Z,9.07
2022-10-02T14:38:13.975Z,9.82
2022-10-02T14:41:02.340Z,9.65
2022-10-02T14:43:42.500Z,8.87
2022-10-02T14:46:36.861Z,7.72
2022-10-02T14:49:39.310Z,8.05
2022-10-02T14:52:27.577Z,9.07
2022-10-02T14:55:15.616Z,10.93
2022-10-02T14:58:00.735Z,6.97
2022-10-02T15:00:54.227Z,7.93
2022-10-02T15:03:52.312Z,8.00
2022-10-02T15:06:22.581Z,8.15
2022-10-02T15:09:17.495Z,8.50
2022-10-02T15:12:10.177Z,7.67
2022-10-02T15:14:52.270Z,8.75
2022-10-02T15:17:57.382Z,8.32
2022-10-02T15:20:27.256Z,8.75
2022-10-02T15:23:07.145Z,10.23
2022-10-02T15:26:10.777Z,9.53
2022-10-02T15:28:59.590Z,10.15
2022-10-02T15:32:24.182Z,12.05
2022-10-02T15:35:17.926Z,8.63
2022-10-02T15:38:06.100Z,9.35
2022-10-02T15:40:47.183Z,14.30
2022-10-02T15:43:17.220Z,12.10
2022-10-02T15:46:11.536Z,10.13
2022-10-02T15:48:58.991Z,10.15
2022-10-02T15:51:33.680Z,15.77
2022-10-02T15:54:08.496Z,10.33
2022-10-02T15:56:54.537Z,11.50
2022-10-02T15:59:24.768Z,32.30
2022-10-02T16:02:05.500Z,27.73
2022-10-02T16:04:59.990Z,13.90
2022-10-02T16:07:48.500Z,10.30
2022-10-02T16:10:26.355Z,10.13
2022-10-02T16:13:20.900Z,8.98
2022-10-02T16:15:59.583Z,8.05
2022-10-02T16:18:58.635Z,8.15
2022-10-02T16:21:37.785Z,8.50
2022-10-02T16:24:36.102Z,7.78
2022-10-02T16:27:59.480Z,8.55
2022-10-02T16:30:33.131Z,8.95
2022-10-02T16:33:24.140Z,8.10
2022-10-02T16:36:34.520Z,8.57
2022-10-02T16:39:28.822Z,8.13
2022-10-02T16:42:17.136Z,8.15
2022-10-02T16:45:05.526Z,7.50
2022-10-02T16:48:13.775Z,7.47
2022-10-02T16:51:08.150Z,7.07
2022-10-02T16:54:03.110Z,7.38
2022-10-02T16:56:52.820Z,7.95
2022-10-02T16:59:44.419Z,7.43
2022-10-02T17:02:23.475Z,8.38
2022-10-02T17:04:59.916Z,8.80
2022-10-02T17:07:37.945Z,8.45
2022-10-02T17:10:29.935Z,10.57
2022-10-02T17:13:37.789Z,10.32
2022-10-02T17:16:13.886Z,11.77
2022-10-02T17:19:18.146Z,10.73
2022-10-02T17:22:10.666Z,10.02
2022-10-02T17:25:01.392Z,8.95
2022-10-02T17:27:42.098Z,10.13
2022-10-02T17:30:28.032Z,9.95
2022-10-02T17:33:04.321Z,8.47
2022-10-02T17:36:01.536Z,7.60
2022-10-02T17:39:09.839Z,9.75
2022-10-02T17:41:49.590Z,8.90
2022-10-02T17:44:17.386Z,8.18
2022-10-02T17:47:10.360Z,7.73
2022-10-02T17:49:43.655Z,7.85
2022-10-02T17:53:01.940Z,7.32
2022-10-02T17:56:30.685Z,6.40
2022-10-02T17:59:35.853Z,7.05
2022-10-02T18:02:33.873Z,7.70
2022-10-02T18:05:27.100Z,6.47
2022-10-02T18:08:13.472Z,7.93
2022-10-02T18:11:07.394Z,6.18
2022-10-02T18:13:59.954Z,8.70
2022-10-02T18:16:32.937Z,6.37
2022-10-02T18:19:03.941Z,7.53
2022-10-02T18:21:52.475Z,6.30
2022-10-02T18:24:57.177Z,6.78
2022-10-02T18:27:49.136Z,8.18
2022-10-02T18:30:24.872Z,7.20
2022-10-02T18:33:26.739Z,7.50
2022-10-02T18:36:11.103Z,9.02
2022-10-02T18:39:02.055Z,8.55
2022-10-02T18:41:50.512Z,8.27
2022-10-02T18:44:26.692Z,9.90
2022-10-02T18:47:26.585Z,7.63
2022-10-02T18:50:18.381Z,8.60
2022-10-02T18:53:11.526Z,8.00
2022-10-02T18:56:05.225Z,7.70
2022-10-02T18:58:43.113Z,8.20
2022-10-02T19:01:25.899Z,8.32
2022-10-02T19:04:23.516Z,8.18
2022-10-02T19:07:20.130Z,6.05
2022-10-02T19:09:47.700Z,7.78
2022-10-02T19:12:22.426Z,8.93
2022-10-02T19:14:56.790Z,6.55
2022-10-02T19:17:30.101Z,6.15
2022-10-02T19:19:58.975Z,8.35
2022-10-02T19:22:36.658Z,7.57
2022-10-02T19:25:22.335Z,9.50
2022-10-02T19:27:57.730Z,8.50
2022-10-02T19:30:30.695Z,8.43
2022-10-02T19:33:12.856Z,6.82
2022-10-02T19:35:43.709Z,6.82
2022-10-02T19:38:34.255Z,6.00
2022-10-02T19:41:10.151Z,6.75
2022-10-02T19:44:07.058Z,8.07
2022-10-02T19:47:02.930Z,6.78
2022-10-02T19:49:40.532Z,6.80
2022-10-02T19:52:33.633Z,3.93
2022-10-02T19:55:04.742Z,5.85
2022-10-02T19:57:38.589Z,8.65
2022-10-02T20:00:14.735Z,5.40
2022-10-02T20:02:46.741Z,4.85
2022-10-02T20:05:30.099Z,3.97
2022-10-02T20:08:06.618Z,5.15
2022-10-02T20:11:15.223Z,7.80
2022-10-02T20:13:49.619Z,5.43
2022-10-02T20:16:42.954Z,3.72
2022-10-02T20:19:24.030Z,3.60
2022-10-02T20:21:57.828Z,3.35
2022-10-02T20:24:31.152Z,3.65
2022-10-02T20:27:06.861Z,5.70
2022-10-02T20:29:44.698Z,3.88
2022-10-02T20:32:37.310Z,4.27
2022-10-02T20:35:36.205Z,4.80
2022-10-02T20:38:22.415Z,4.65
2022-10-02T20:40:53.662Z,5.72
2022-10-02T20:43:37.580Z,5.47
2022-10-02T20:46:26.678Z,7.03
2022-10-02T20:49:35.658Z,6.63
2022-10-02T20:52:36.456Z,4.45
2022-10-02T20:55:33.869Z,5.90
2022-10-02T20:58:22.982Z,3.83
2022-10-02T21:01:15.164Z,3.50
2022-10-02T21:04:22.390Z,3.00
2022-10-02T21:07:13.829Z,4.43
2022-10-02T21:09:56.217Z,4.22
2022-10-02T21:13:00.285Z,4.05
2022-10-02T21:16:18.140Z,3.47
2022-10-02T21:19:05.216Z,3.45
2022-10-02T21:21:54.702Z,3.53
2022-10-02T21:24:33.976Z,2.90
2022-10-02T21:27:04.140Z,6.40
2022-10-02T21:29:54.135Z,3.73
2022-10-02T21:32:34.070Z,4.78
2022-10-02T21:35:37.810Z,4.93
2022-10-02T21:38:36.418Z,3.53
2022-10-02T21:41:25.836Z,3.70
2022-10-02T21:44:26.921Z,2.70
2022-10-02T21:47:17.324Z,3.63
2022-10-02T21:49:58.474Z,3.90
2022-10-02T21:52:48.439Z,3.13
2022-10-02T21:55:41.717Z,3.28
2022-10-02T21:58:36.288Z,2.73
2022-10-02T22:01:16.613Z,3.70
2022-10-02T22:04:04.633Z,3.20
2022-10-02T22:07:04.167Z,3.80
2022-10-02T22:10:14.611Z,3.33
2022-10-02T22:13:09.179Z,3.40
2022-10-02T22:16:06.348Z,3.67
2022-10-02T22:18:44.564Z,3.63
2022-10-02T22:21:45.872Z,3.05
2022-10-02T22:24:35.854Z,3.42
2022-10-02T22:27:15.098Z,3.07
2022-10-02T22:29:47.204Z,3.58
2022-10-02T22:33:04.138Z,3.35
2022-10-02T22:35:50.225Z,3.10
2022-10-02T22:38:31.482Z,3.70
2022-10-02T22:41:23.834Z,3.10
2022-10-02T22:43:53.381Z,3.15
2022-10-02T22:46:47.780Z,3.83
2022-10-02T22:49:47.138Z,3.28
2022-10-02T22:52:56.747Z,3.33
2022-10-02T22:55:34.507Z,3.03
2022-10-02T22:58:23.260Z,3.50
2022-10-02T23:01:18.172Z,3.40
2022-10-02T23:03:51.462Z,3.03
2022-10-02T23:06:25.427Z,3.20
2022-10-02T23:09:16.704Z,3.37
2022-10-02T23:11:54.124Z,3.45
2022-10-02T23:14:47.099Z,3.53
2022-10-02T23:17:38.396Z,3.15
2022-10-02T23:20:40.581Z,3.03
2022-10-02T23:23:25.226Z,3.13
2022-10-02T23:26:14.221Z,3.33
2022-10-02T23:29:13.023Z,3.03
2022-10-02T23:32:27.506Z,3.20
2022-10-02T23:35:13.537Z,3.50
2022-10-02T23:37:59.823Z,3.50
2022-10-02T23:40:55.666Z,2.97
2022-10-02T23:43:38.972Z,3.83
2022-10-02T23:46:19.794Z,3.67
2022-10-02T23:48:47.335Z,3.63
2022-10-02T23:51:38.309Z,2.63
2022-10-02T23:54:20.094Z,2.95
2022-10-02T23:56:56.672Z,3.20
2022-10-02T23:59:26.876Z,3.78
